Albuquerque, NM (87101)

4:44 PM MDT on August 29, 2015 (GMT -0600)
UNM Area West | | Change Station
CLOSE
Current Station
Personal Weather Station
Location: Albuquerque, NM
Elevation: 5133 ft
Nearby Weather Stations

Elev 5133 ft 35.09 °N, 106.63 °W | Updated 11 minutes ago

Mostly Cloudy
Mostly Cloudy
82.4 °F
Feels Like 81 °F
N
5.0
Wind Variable Wind from SE
Gusts 17.0 mph

Today
High -- | Low -- °F
--% Chance of Precip.
Yesterday
High -- | Low -- °F
Precip. -- in
6:36 AM 7:37 PM
Full, 100% visible
Pressure 30.21 in
Visibility 10.0 miles
Clouds Scattered Clouds 9500 ft
Mostly Cloudy 15000 ft
Mostly Cloudy 25000 ft
Heat Index 81 °F
Dew Point 51 °F
Humidity 33%
Rainfall 0.00 in
Snow Depth Not available.
UV 3 out of 12
Pollen 6.70 out of 12
Air Quality Not available.
Flu Activity Not available.
SPECI KABQ 292226Z 12020KT 10SM SCT095 BKN150 BKN250 27/09 A3021 RMK AO2 PK WND 09026/2205 LTG DSNT SE AND S CB DSNT N SHRA DSNT E AND SE T02670094
Pressure 30.21 in
Visibility 10.0 miles
Clouds Scattered Clouds 9500 ft
Mostly Cloudy 15000 ft
Mostly Cloudy 25000 ft
Heat Index 81 °F
Dew Point 51 °F
Humidity 33%
Rainfall 0.00 in
Snow Depth Not available.
UV 3 out of 12
Pollen 6.70 out of 12
Air Quality Not available.
Flu Activity Not available.
SPECI KABQ 292226Z 12020KT 10SM SCT095 BKN150 BKN250 27/09 A3021 RMK AO2 PK WND 09026/2205 LTG DSNT SE AND S CB DSNT N SHRA DSNT E AND SE T02670094

10-Day Weather Forecast

×

Almanac

Astronomy

Aug. 29, 2015 Rise Set
Actual Time
Civil Twilight
Nautical Twilight
Astronomical Twilight
Moon
Length of Visible Light
Length of Day
Tomorrow will be .
, % of the Moon is Illuminated

Today's Extremes

State Highs State Lows

Community

WunderPhotos

Upload Photos

1,850,775 photos uploaded!

WunderBlogs® & News

Nearby

Air Quality

  Air Quality AQ Index Pollutant
Not available.

Snow Depth

Station Depth Elevation

Earthquake Activity

City Distance Mag. Time & Date
Minimum magnitude displayed is 2.5.

Coastal Water Temperatures

Place Temperature

Stations

Nearby Weather Stations

Station Location Temp. Windchill Dew Point Humidity Wind Precip. Elev Updated Type